sensor_id;sensor_type;location;lat;lon;timestamp;P1;durP1;ratioP1;P2;durP2;ratioP2
9860;SDS011;4969;52.304;4.968;2024-02-21T00:02:04;13.57;;;3.53;;
9860;SDS011;4969;52.304;4.968;2024-02-21T00:04:31;12.55;;;3.63;;
9860;SDS011;4969;52.304;4.968;2024-02-21T00:06:58;16.10;;;4.53;;
9860;SDS011;4969;52.304;4.968;2024-02-21T00:09:26;11.43;;;3.38;;
9860;SDS011;4969;52.304;4.968;2024-02-21T00:11:52;14.55;;;3.53;;
9860;SDS011;4969;52.304;4.968;2024-02-21T00:14:19;13.63;;;3.78;;
9860;SDS011;4969;52.304;4.968;2024-02-21T00:16:45;17.42;;;4.40;;
9860;SDS011;4969;52.304;4.968;2024-02-21T00:19:12;13.32;;;3.63;;
9860;SDS011;4969;52.304;4.968;2024-02-21T00:21:39;16.80;;;3.92;;
9860;SDS011;4969;52.304;4.968;2024-02-21T00:24:06;13.45;;;3.70;;
9860;SDS011;4969;52.304;4.968;2024-02-21T00:26:34;13.55;;;3.45;;
9860;SDS011;4969;52.304;4.968;2024-02-21T00:29:00;14.43;;;3.58;;
9860;SDS011;4969;52.304;4.968;2024-02-21T00:31:27;12.30;;;3.80;;
9860;SDS011;4969;52.304;4.968;2024-02-21T00:33:54;10.70;;;3.20;;
9860;SDS011;4969;52.304;4.968;2024-02-21T00:36:20;19.13;;;4.10;;
9860;SDS011;4969;52.304;4.968;2024-02-21T00:38:47;14.55;;;3.95;;
9860;SDS011;4969;52.304;4.968;2024-02-21T00:41:13;11.35;;;3.47;;
9860;SDS011;4969;52.304;4.968;2024-02-21T00:43:41;10.30;;;3.67;;
9860;SDS011;4969;52.304;4.968;2024-02-21T00:46:08;15.07;;;4.13;;
9860;SDS011;4969;52.304;4.968;2024-02-21T00:48:34;15.05;;;4.03;;
9860;SDS011;4969;52.304;4.968;2024-02-21T00:51:01;11.98;;;3.38;;
9860;SDS011;4969;52.304;4.968;2024-02-21T00:53:27;13.18;;;3.50;;
9860;SDS011;4969;52.304;4.968;2024-02-21T00:55:54;14.20;;;4.05;;
9860;SDS011;4969;52.304;4.968;2024-02-21T00:58:21;13.40;;;3.80;;
9860;SDS011;4969;52.304;4.968;2024-02-21T01:00:50;13.98;;;3.92;;
9860;SDS011;4969;52.304;4.968;2024-02-21T01:03:16;16.92;;;4.05;;
9860;SDS011;4969;52.304;4.968;2024-02-21T01:05:43;11.02;;;3.00;;
9860;SDS011;4969;52.304;4.968;2024-02-21T01:08:09;16.15;;;3.45;;
9860;SDS011;4969;52.304;4.968;2024-02-21T01:10:36;14.80;;;3.72;;
9860;SDS011;4969;52.304;4.968;2024-02-21T01:13:02;9.70;;;3.10;;
9860;SDS011;4969;52.304;4.968;2024-02-21T01:15:29;16.90;;;3.72;;
9860;SDS011;4969;52.304;4.968;2024-02-21T01:17:57;12.43;;;3.53;;
9860;SDS011;4969;52.304;4.968;2024-02-21T01:20:23;17.25;;;3.60;;
9860;SDS011;4969;52.304;4.968;2024-02-21T01:22:50;10.88;;;2.90;;
9860;SDS011;4969;52.304;4.968;2024-02-21T01:25:17;14.23;;;4.07;;
9860;SDS011;4969;52.304;4.968;2024-02-21T01:27:43;16.02;;;3.92;;
9860;SDS011;4969;52.304;4.968;2024-02-21T01:30:10;16.10;;;3.53;;
9860;SDS011;4969;52.304;4.968;2024-02-21T01:32:37;14.05;;;3.53;;
9860;SDS011;4969;52.304;4.968;2024-02-21T01:35:05;17.13;;;3.80;;
9860;SDS011;4969;52.304;4.968;2024-02-21T01:37:32;17.00;;;3.90;;
9860;SDS011;4969;52.304;4.968;2024-02-21T01:39:59;16.48;;;3.75;;
9860;SDS011;4969;52.304;4.968;2024-02-21T01:42:27;12.50;;;3.60;;
9860;SDS011;4969;52.304;4.968;2024-02-21T01:44:54;13.90;;;3.63;;
9860;SDS011;4969;52.304;4.968;2024-02-21T01:47:20;19.58;;;4.07;;
9860;SDS011;4969;52.304;4.968;2024-02-21T01:49:47;12.63;;;3.80;;
9860;SDS011;4969;52.304;4.968;2024-02-21T01:52:15;15.60;;;3.50;;
9860;SDS011;4969;52.304;4.968;2024-02-21T01:54:43;16.87;;;4.17;;
9860;SDS011;4969;52.304;4.968;2024-02-21T01:57:10;17.70;;;3.50;;
9860;SDS011;4969;52.304;4.968;2024-02-21T01:59:37;14.32;;;3.50;;
9860;SDS011;4969;52.304;4.968;2024-02-21T02:02:04;16.50;;;3.42;;
9860;SDS011;4969;52.304;4.968;2024-02-21T02:04:31;14.25;;;3.60;;
9860;SDS011;4969;52.304;4.968;2024-02-21T02:06:57;15.07;;;4.15;;
9860;SDS011;4969;52.304;4.968;2024-02-21T02:09:29;14.85;;;3.80;;
9860;SDS011;4969;52.304;4.968;2024-02-21T02:11:56;18.48;;;3.75;;
9860;SDS011;4969;52.304;4.968;2024-02-21T02:14:23;14.38;;;3.65;;
9860;SDS011;4969;52.304;4.968;2024-02-21T02:16:50;13.15;;;3.58;;
9860;SDS011;4969;52.304;4.968;2024-02-21T02:19:16;15.32;;;3.38;;
9860;SDS011;4969;52.304;4.968;2024-02-21T02:21:46;14.05;;;3.92;;
9860;SDS011;4969;52.304;4.968;2024-02-21T02:24:19;14.57;;;4.30;;
9860;SDS011;4969;52.304;4.968;2024-02-21T02:26:47;18.65;;;4.18;;
9860;SDS011;4969;52.304;4.968;2024-02-21T02:29:13;13.77;;;3.45;;
9860;SDS011;4969;52.304;4.968;2024-02-21T02:31:40;13.18;;;3.53;;
9860;SDS011;4969;52.304;4.968;2024-02-21T02:34:06;13.90;;;3.40;;
9860;SDS011;4969;52.304;4.968;2024-02-21T02:36:33;14.18;;;3.72;;
9860;SDS011;4969;52.304;4.968;2024-02-21T02:38:59;9.73;;;3.10;;
9860;SDS011;4969;52.304;4.968;2024-02-21T02:41:27;10.75;;;3.30;;
9860;SDS011;4969;52.304;4.968;2024-02-21T02:43:54;11.70;;;3.43;;
9860;SDS011;4969;52.304;4.968;2024-02-21T02:46:20;13.07;;;3.90;;
9860;SDS011;4969;52.304;4.968;2024-02-21T02:48:47;16.15;;;4.45;;
9860;SDS011;4969;52.304;4.968;2024-02-21T02:51:13;16.17;;;3.40;;
9860;SDS011;4969;52.304;4.968;2024-02-21T02:53:40;16.27;;;3.70;;
9860;SDS011;4969;52.304;4.968;2024-02-21T02:56:07;15.43;;;3.80;;
9860;SDS011;4969;52.304;4.968;2024-02-21T02:58:41;12.87;;;3.30;;
9860;SDS011;4969;52.304;4.968;2024-02-21T03:01:08;15.90;;;4.03;;
9860;SDS011;4969;52.304;4.968;2024-02-21T03:03:34;11.43;;;3.17;;
9860;SDS011;4969;52.304;4.968;2024-02-21T03:06:01;10.87;;;3.20;;
9860;SDS011;4969;52.304;4.968;2024-02-21T03:08:27;12.15;;;3.45;;
9860;SDS011;4969;52.304;4.968;2024-02-21T03:10:54;13.80;;;3.63;;
9860;SDS011;4969;52.304;4.968;2024-02-21T03:13:20;14.38;;;3.90;;
9860;SDS011;4969;52.304;4.968;2024-02-21T03:15:48;14.63;;;3.53;;
9860;SDS011;4969;52.304;4.968;2024-02-21T03:18:15;10.70;;;3.30;;
9860;SDS011;4969;52.304;4.968;2024-02-21T03:20:41;12.25;;;3.45;;
9860;SDS011;4969;52.304;4.968;2024-02-21T03:23:08;13.75;;;3.17;;
9860;SDS011;4969;52.304;4.968;2024-02-21T03:25:34;16.38;;;4.13;;
9860;SDS011;4969;52.304;4.968;2024-02-21T03:28:01;12.80;;;3.27;;
9860;SDS011;4969;52.304;4.968;2024-02-21T03:30:28;14.03;;;4.37;;
9860;SDS011;4969;52.304;4.968;2024-02-21T03:32:56;15.90;;;3.87;;
9860;SDS011;4969;52.304;4.968;2024-02-21T03:35:23;21.05;;;3.58;;
9860;SDS011;4969;52.304;4.968;2024-02-21T03:37:51;15.83;;;4.03;;
9860;SDS011;4969;52.304;4.968;2024-02-21T03:40:18;13.00;;;3.47;;
9860;SDS011;4969;52.304;4.968;2024-02-21T03:42:44;13.93;;;3.17;;
9860;SDS011;4969;52.304;4.968;2024-02-21T03:45:11;13.45;;;3.70;;
9860;SDS011;4969;52.304;4.968;2024-02-21T03:47:37;14.70;;;4.17;;
9860;SDS011;4969;52.304;4.968;2024-02-21T03:50:06;10.70;;;3.17;;
9860;SDS011;4969;52.304;4.968;2024-02-21T03:52:33;13.63;;;3.73;;
9860;SDS011;4969;52.304;4.968;2024-02-21T03:55:00;12.13;;;3.40;;
9860;SDS011;4969;52.304;4.968;2024-02-21T03:57:26;17.60;;;4.10;;
9860;SDS011;4969;52.304;4.968;2024-02-21T03:59:53;10.93;;;2.97;;
9860;SDS011;4969;52.304;4.968;2024-02-21T04:02:20;13.90;;;3.72;;
9860;SDS011;4969;52.304;4.968;2024-02-21T04:04:46;12.93;;;3.92;;
9860;SDS011;4969;52.304;4.968;2024-02-21T04:07:14;11.73;;;3.17;;
9860;SDS011;4969;52.304;4.968;2024-02-21T04:09:41;17.13;;;4.28;;
9860;SDS011;4969;52.304;4.968;2024-02-21T04:12:08;12.05;;;3.60;;
9860;SDS011;4969;52.304;4.968;2024-02-21T04:14:35;16.13;;;4.00;;
9860;SDS011;4969;52.304;4.968;2024-02-21T04:17:01;16.10;;;4.15;;
9860;SDS011;4969;52.304;4.968;2024-02-21T04:19:28;10.73;;;3.53;;
9860;SDS011;4969;52.304;4.968;2024-02-21T04:21:56;13.48;;;3.97;;
9860;SDS011;4969;52.304;4.968;2024-02-21T04:24:23;15.90;;;4.43;;
9860;SDS011;4969;52.304;4.968;2024-02-21T04:26:50;15.50;;;3.70;;
9860;SDS011;4969;52.304;4.968;2024-02-21T04:29:17;10.02;;;3.67;;
9860;SDS011;4969;52.304;4.968;2024-02-21T04:31:43;13.77;;;4.05;;
9860;SDS011;4969;52.304;4.968;2024-02-21T04:34:10;13.18;;;3.20;;
9860;SDS011;4969;52.304;4.968;2024-02-21T04:36:37;13.15;;;3.92;;
9860;SDS011;4969;52.304;4.968;2024-02-21T04:39:03;12.55;;;4.18;;
9860;SDS011;4969;52.304;4.968;2024-02-21T04:41:31;9.48;;;3.65;;
9860;SDS011;4969;52.304;4.968;2024-02-21T04:43:57;10.73;;;3.40;;
9860;SDS011;4969;52.304;4.968;2024-02-21T04:46:24;11.18;;;3.97;;
9860;SDS011;4969;52.304;4.968;2024-02-21T04:48:51;10.90;;;3.60;;
9860;SDS011;4969;52.304;4.968;2024-02-21T04:51:18;13.82;;;3.80;;
9860;SDS011;4969;52.304;4.968;2024-02-21T04:53:44;10.75;;;3.83;;
9860;SDS011;4969;52.304;4.968;2024-02-21T04:56:11;11.35;;;3.78;;
9860;SDS011;4969;52.304;4.968;2024-02-21T04:58:39;10.23;;;3.40;;
9860;SDS011;4969;52.304;4.968;2024-02-21T05:01:06;9.98;;;4.18;;
9860;SDS011;4969;52.304;4.968;2024-02-21T05:03:32;10.55;;;3.35;;
9860;SDS011;4969;52.304;4.968;2024-02-21T05:05:59;9.63;;;3.63;;
9860;SDS011;4969;52.304;4.968;2024-02-21T05:08:26;8.10;;;3.67;;
9860;SDS011;4969;52.304;4.968;2024-02-21T05:10:52;10.10;;;3.88;;
9860;SDS011;4969;52.304;4.968;2024-02-21T05:13:19;8.57;;;3.40;;
9860;SDS011;4969;52.304;4.968;2024-02-21T05:15:47;12.40;;;3.63;;
9860;SDS011;4969;52.304;4.968;2024-02-21T05:18:14;10.52;;;3.60;;
9860;SDS011;4969;52.304;4.968;2024-02-21T05:20:40;12.02;;;3.67;;
9860;SDS011;4969;52.304;4.968;2024-02-21T05:23:07;9.40;;;3.92;;
9860;SDS011;4969;52.304;4.968;2024-02-21T05:25:33;9.77;;;3.75;;
9860;SDS011;4969;52.304;4.968;2024-02-21T05:28:00;10.30;;;3.80;;
9860;SDS011;4969;52.304;4.968;2024-02-21T05:30:28;10.32;;;4.32;;
9860;SDS011;4969;52.304;4.968;2024-02-21T05:32:56;10.20;;;4.70;;
9860;SDS011;4969;52.304;4.968;2024-02-21T05:35:25;8.95;;;3.85;;
9860;SDS011;4969;52.304;4.968;2024-02-21T05:37:52;11.45;;;4.32;;
9860;SDS011;4969;52.304;4.968;2024-02-21T05:40:19;6.82;;;4.00;;
9860;SDS011;4969;52.304;4.968;2024-02-21T05:42:45;13.73;;;5.72;;
9860;SDS011;4969;52.304;4.968;2024-02-21T05:45:12;10.90;;;5.65;;
9860;SDS011;4969;52.304;4.968;2024-02-21T05:47:40;8.18;;;4.70;;
9860;SDS011;4969;52.304;4.968;2024-02-21T05:50:09;11.57;;;5.53;;
9860;SDS011;4969;52.304;4.968;2024-02-21T05:52:36;8.95;;;5.40;;
9860;SDS011;4969;52.304;4.968;2024-02-21T05:55:02;8.07;;;5.47;;
9860;SDS011;4969;52.304;4.968;2024-02-21T05:57:29;9.65;;;6.43;;
9860;SDS011;4969;52.304;4.968;2024-02-21T05:59:56;7.22;;;5.25;;
9860;SDS011;4969;52.304;4.968;2024-02-21T06:02:22;12.68;;;5.53;;
9860;SDS011;4969;52.304;4.968;2024-02-21T06:04:49;8.20;;;6.07;;
9860;SDS011;4969;52.304;4.968;2024-02-21T06:07:17;9.35;;;6.43;;
9860;SDS011;4969;52.304;4.968;2024-02-21T06:09:43;7.88;;;5.50;;
9860;SDS011;4969;52.304;4.968;2024-02-21T06:12:10;10.02;;;6.20;;
9860;SDS011;4969;52.304;4.968;2024-02-21T06:14:36;11.13;;;7.00;;
9860;SDS011;4969;52.304;4.968;2024-02-21T06:17:03;8.45;;;6.35;;
9860;SDS011;4969;52.304;4.968;2024-02-21T06:19:29;8.00;;;6.43;;
9860;SDS011;4969;52.304;4.968;2024-02-21T06:21:56;9.73;;;6.80;;
9860;SDS011;4969;52.304;4.968;2024-02-21T06:24:24;8.60;;;6.75;;
9860;SDS011;4969;52.304;4.968;2024-02-21T06:26:50;10.32;;;7.47;;
9860;SDS011;4969;52.304;4.968;2024-02-21T06:29:17;7.38;;;6.43;;
9860;SDS011;4969;52.304;4.968;2024-02-21T06:31:43;8.63;;;7.43;;
9860;SDS011;4969;52.304;4.968;2024-02-21T06:34:10;8.30;;;7.50;;
9860;SDS011;4969;52.304;4.968;2024-02-21T06:36:36;7.65;;;6.80;;
9860;SDS011;4969;52.304;4.968;2024-02-21T06:39:03;9.85;;;5.95;;
9860;SDS011;4969;52.304;4.968;2024-02-21T06:41:34;11.73;;;7.70;;
9860;SDS011;4969;52.304;4.968;2024-02-21T06:44:00;8.60;;;7.85;;
9860;SDS011;4969;52.304;4.968;2024-02-21T06:46:28;8.63;;;6.15;;
9860;SDS011;4969;52.304;4.968;2024-02-21T06:48:55;8.43;;;6.80;;
9860;SDS011;4969;52.304;4.968;2024-02-21T06:51:22;7.75;;;5.43;;
9860;SDS011;4969;52.304;4.968;2024-02-21T06:53:49;8.82;;;7.20;;
9860;SDS011;4969;52.304;4.968;2024-02-21T06:56:16;6.38;;;5.78;;
9860;SDS011;4969;52.304;4.968;2024-02-21T06:58:44;9.50;;;7.18;;
9860;SDS011;4969;52.304;4.968;2024-02-21T07:01:10;6.57;;;6.05;;
9860;SDS011;4969;52.304;4.968;2024-02-21T07:03:37;7.93;;;6.97;;
9860;SDS011;4969;52.304;4.968;2024-02-21T07:06:04;9.93;;;7.57;;
9860;SDS011;4969;52.304;4.968;2024-02-21T07:08:30;8.32;;;7.35;;
9860;SDS011;4969;52.304;4.968;2024-02-21T07:10:57;10.20;;;8.32;;
9860;SDS011;4969;52.304;4.968;2024-02-21T07:13:23;9.00;;;8.10;;
9860;SDS011;4969;52.304;4.968;2024-02-21T07:15:51;9.95;;;8.43;;
9860;SDS011;4969;52.304;4.968;2024-02-21T07:18:18;8.88;;;7.97;;
9860;SDS011;4969;52.304;4.968;2024-02-21T07:20:44;10.98;;;7.47;;
9860;SDS011;4969;52.304;4.968;2024-02-21T07:23:11;10.35;;;6.97;;
9860;SDS011;4969;52.304;4.968;2024-02-21T07:25:39;9.40;;;7.35;;
9860;SDS011;4969;52.304;4.968;2024-02-21T07:28:05;10.70;;;7.50;;
9860;SDS011;4969;52.304;4.968;2024-02-21T07:30:33;8.82;;;4.45;;
9860;SDS011;4969;52.304;4.968;2024-02-21T07:33:01;9.68;;;7.43;;
9860;SDS011;4969;52.304;4.968;2024-02-21T07:35:27;8.63;;;6.68;;
9860;SDS011;4969;52.304;4.968;2024-02-21T07:37:54;12.65;;;8.07;;
9860;SDS011;4969;52.304;4.968;2024-02-21T07:40:20;9.20;;;6.65;;
9860;SDS011;4969;52.304;4.968;2024-02-21T07:42:47;7.93;;;6.18;;
9860;SDS011;4969;52.304;4.968;2024-02-21T07:45:14;9.85;;;6.72;;
9860;SDS011;4969;52.304;4.968;2024-02-21T07:47:40;7.88;;;6.25;;
9860;SDS011;4969;52.304;4.968;2024-02-21T07:50:09;9.30;;;6.45;;
9860;SDS011;4969;52.304;4.968;2024-02-21T07:52:36;8.52;;;6.25;;
9860;SDS011;4969;52.304;4.968;2024-02-21T07:55:02;9.52;;;6.40;;
9860;SDS011;4969;52.304;4.968;2024-02-21T07:57:29;7.07;;;5.93;;
9860;SDS011;4969;52.304;4.968;2024-02-21T07:59:56;8.90;;;6.80;;
9860;SDS011;4969;52.304;4.968;2024-02-21T08:02:22;6.47;;;4.65;;
9860;SDS011;4969;52.304;4.968;2024-02-21T08:04:49;8.55;;;5.65;;
9860;SDS011;4969;52.304;4.968;2024-02-21T08:07:17;9.30;;;6.22;;
9860;SDS011;4969;52.304;4.968;2024-02-21T08:09:43;8.65;;;6.15;;
9860;SDS011;4969;52.304;4.968;2024-02-21T08:12:10;9.65;;;6.88;;
9860;SDS011;4969;52.304;4.968;2024-02-21T08:14:36;18.35;;;6.55;;
9860;SDS011;4969;52.304;4.968;2024-02-21T08:17:03;10.55;;;7.53;;
9860;SDS011;4969;52.304;4.968;2024-02-21T08:19:30;10.05;;;6.25;;
9860;SDS011;4969;52.304;4.968;2024-02-21T08:21:56;9.60;;;7.63;;
9860;SDS011;4969;52.304;4.968;2024-02-21T08:24:24;9.85;;;6.25;;
9860;SDS011;4969;52.304;4.968;2024-02-21T08:26:51;9.25;;;6.78;;
9860;SDS011;4969;52.304;4.968;2024-02-21T08:29:17;9.00;;;6.82;;
9860;SDS011;4969;52.304;4.968;2024-02-21T08:31:44;9.68;;;6.05;;
9860;SDS011;4969;52.304;4.968;2024-02-21T08:34:10;8.52;;;6.97;;
9860;SDS011;4969;52.304;4.968;2024-02-21T08:36:38;8.32;;;7.40;;
9860;SDS011;4969;52.304;4.968;2024-02-21T08:39:04;11.95;;;8.02;;
9860;SDS011;4969;52.304;4.968;2024-02-21T08:41:33;10.57;;;7.15;;
9860;SDS011;4969;52.304;4.968;2024-02-21T08:44:00;10.15;;;7.78;;
9860;SDS011;4969;52.304;4.968;2024-02-21T08:46:27;12.43;;;8.77;;
9860;SDS011;4969;52.304;4.968;2024-02-21T08:48:53;10.20;;;7.68;;
9860;SDS011;4969;52.304;4.968;2024-02-21T08:51:20;9.65;;;7.75;;
9860;SDS011;4969;52.304;4.968;2024-02-21T08:53:47;12.60;;;8.73;;
9860;SDS011;4969;52.304;4.968;2024-02-21T08:56:14;10.38;;;8.32;;
9860;SDS011;4969;52.304;4.968;2024-02-21T08:58:42;11.18;;;8.13;;
9860;SDS011;4969;52.304;4.968;2024-02-21T09:01:09;13.70;;;8.70;;
9860;SDS011;4969;52.304;4.968;2024-02-21T09:03:36;10.77;;;8.48;;
9860;SDS011;4969;52.304;4.968;2024-02-21T09:06:03;11.10;;;8.40;;
9860;SDS011;4969;52.304;4.968;2024-02-21T09:08:30;10.25;;;6.07;;
9860;SDS011;4969;52.304;4.968;2024-02-21T09:10:57;13.95;;;9.20;;
9860;SDS011;4969;52.304;4.968;2024-02-21T09:13:23;8.60;;;7.55;;
9860;SDS011;4969;52.304;4.968;2024-02-21T09:15:51;10.02;;;7.70;;
9860;SDS011;4969;52.304;4.968;2024-02-21T09:18:18;11.88;;;8.95;;
9860;SDS011;4969;52.304;4.968;2024-02-21T09:20:45;9.95;;;7.95;;
9860;SDS011;4969;52.304;4.968;2024-02-21T09:23:12;9.35;;;8.38;;
9860;SDS011;4969;52.304;4.968;2024-02-21T09:25:39;11.48;;;8.50;;
9860;SDS011;4969;52.304;4.968;2024-02-21T09:28:06;9.07;;;8.15;;
9860;SDS011;4969;52.304;4.968;2024-02-21T09:30:32;10.15;;;6.72;;
9860;SDS011;4969;52.304;4.968;2024-02-21T09:33:00;8.82;;;7.70;;
9860;SDS011;4969;52.304;4.968;2024-02-21T09:35:27;6.88;;;5.32;;
9860;SDS011;4969;52.304;4.968;2024-02-21T09:37:54;10.90;;;8.10;;
9860;SDS011;4969;52.304;4.968;2024-02-21T09:40:20;9.70;;;8.80;;
9860;SDS011;4969;52.304;4.968;2024-02-21T09:42:47;9.88;;;7.68;;
9860;SDS011;4969;52.304;4.968;2024-02-21T09:45:15;9.43;;;8.50;;
9860;SDS011;4969;52.304;4.968;2024-02-21T09:47:50;9.77;;;8.68;;
9860;SDS011;4969;52.304;4.968;2024-02-21T09:50:27;9.90;;;8.55;;
9860;SDS011;4969;52.304;4.968;2024-02-21T09:52:56;11.45;;;8.13;;
9860;SDS011;4969;52.304;4.968;2024-02-21T09:55:24;11.48;;;7.80;;
9860;SDS011;4969;52.304;4.968;2024-02-21T09:57:52;10.65;;;8.35;;
9860;SDS011;4969;52.304;4.968;2024-02-21T10:00:20;12.27;;;8.23;;
9860;SDS011;4969;52.304;4.968;2024-02-21T10:02:47;8.80;;;7.35;;
9860;SDS011;4969;52.304;4.968;2024-02-21T10:05:14;10.50;;;8.05;;
9860;SDS011;4969;52.304;4.968;2024-02-21T10:07:44;10.50;;;8.65;;
9860;SDS011;4969;52.304;4.968;2024-02-21T10:10:10;9.05;;;7.97;;
9860;SDS011;4969;52.304;4.968;2024-02-21T10:12:47;10.20;;;7.53;;
9860;SDS011;4969;52.304;4.968;2024-02-21T10:15:19;11.35;;;8.15;;
9860;SDS011;4969;52.304;4.968;2024-02-21T10:17:46;8.55;;;7.75;;
9860;SDS011;4969;52.304;4.968;2024-02-21T10:20:12;9.10;;;6.68;;
9860;SDS011;4969;52.304;4.968;2024-02-21T10:22:40;11.23;;;8.07;;
9860;SDS011;4969;52.304;4.968;2024-02-21T10:25:08;10.02;;;7.57;;
9860;SDS011;4969;52.304;4.968;2024-02-21T10:27:36;9.07;;;6.43;;
9860;SDS011;4969;52.304;4.968;2024-02-21T10:30:03;9.15;;;7.70;;
9860;SDS011;4969;52.304;4.968;2024-02-21T10:32:31;8.85;;;7.00;;
9860;SDS011;4969;52.304;4.968;2024-02-21T10:35:00;9.73;;;6.40;;
9860;SDS011;4969;52.304;4.968;2024-02-21T10:37:28;9.35;;;8.07;;
9860;SDS011;4969;52.304;4.968;2024-02-21T10:39:54;7.60;;;6.90;;
9860;SDS011;4969;52.304;4.968;2024-02-21T10:42:23;10.93;;;6.38;;
9860;SDS011;4969;52.304;4.968;2024-02-21T10:44:56;7.13;;;6.20;;
9860;SDS011;4969;52.304;4.968;2024-02-21T10:47:29;10.20;;;5.72;;
9860;SDS011;4969;52.304;4.968;2024-02-21T10:50:00;6.72;;;6.03;;
9860;SDS011;4969;52.304;4.968;2024-02-21T10:52:32;9.23;;;6.32;;
9860;SDS011;4969;52.304;4.968;2024-02-21T10:55:12;5.32;;;4.78;;
9860;SDS011;4969;52.304;4.968;2024-02-21T10:57:47;6.65;;;5.90;;
9860;SDS011;4969;52.304;4.968;2024-02-21T11:00:14;7.13;;;6.30;;
9860;SDS011;4969;52.304;4.968;2024-02-21T11:02:44;9.10;;;6.10;;
9860;SDS011;4969;52.304;4.968;2024-02-21T11:05:11;8.48;;;6.40;;
9860;SDS011;4969;52.304;4.968;2024-02-21T11:07:38;8.68;;;6.25;;
9860;SDS011;4969;52.304;4.968;2024-02-21T11:10:19;6.15;;;5.55;;
9860;SDS011;4969;52.304;4.968;2024-02-21T11:12:48;6.55;;;5.53;;
9860;SDS011;4969;52.304;4.968;2024-02-21T11:15:14;6.55;;;5.80;;
9860;SDS011;4969;52.304;4.968;2024-02-21T11:17:41;8.55;;;5.60;;
9860;SDS011;4969;52.304;4.968;2024-02-21T11:20:12;6.43;;;5.82;;
9860;SDS011;4969;52.304;4.968;2024-02-21T11:22:41;6.75;;;6.15;;
9860;SDS011;4969;52.304;4.968;2024-02-21T11:25:08;7.85;;;5.28;;
9860;SDS011;4969;52.304;4.968;2024-02-21T11:27:36;6.32;;;5.50;;
9860;SDS011;4969;52.304;4.968;2024-02-21T11:30:05;5.85;;;5.32;;
9860;SDS011;4969;52.304;4.968;2024-02-21T11:32:32;6.05;;;5.10;;
9860;SDS011;4969;52.304;4.968;2024-02-21T11:34:59;5.43;;;5.00;;
9860;SDS011;4969;52.304;4.968;2024-02-21T11:37:27;6.07;;;5.45;;
9860;SDS011;4969;52.304;4.968;2024-02-21T11:39:54;5.60;;;5.10;;
9860;SDS011;4969;52.304;4.968;2024-02-21T11:42:20;4.95;;;3.92;;
9860;SDS011;4969;52.304;4.968;2024-02-21T11:44:47;5.38;;;4.95;;
9860;SDS011;4969;52.304;4.968;2024-02-21T11:47:15;7.15;;;6.15;;
9860;SDS011;4969;52.304;4.968;2024-02-21T11:49:43;5.55;;;4.60;;
9860;SDS011;4969;52.304;4.968;2024-02-21T11:52:11;5.30;;;4.65;;
9860;SDS011;4969;52.304;4.968;2024-02-21T11:54:40;5.43;;;4.95;;
9860;SDS011;4969;52.304;4.968;2024-02-21T11:57:07;6.13;;;5.60;;
9860;SDS011;4969;52.304;4.968;2024-02-21T11:59:34;6.65;;;5.40;;
9860;SDS011;4969;52.304;4.968;2024-02-21T12:02:01;5.60;;;5.20;;
9860;SDS011;4969;52.304;4.968;2024-02-21T12:04:29;4.95;;;4.55;;
9860;SDS011;4969;52.304;4.968;2024-02-21T12:06:57;4.65;;;4.30;;
9860;SDS011;4969;52.304;4.968;2024-02-21T12:09:23;6.78;;;6.25;;
9860;SDS011;4969;52.304;4.968;2024-02-21T12:11:57;3.78;;;2.80;;
9860;SDS011;4969;52.304;4.968;2024-02-21T12:14:25;6.25;;;5.68;;
9860;SDS011;4969;52.304;4.968;2024-02-21T12:16:53;5.78;;;5.10;;
9860;SDS011;4969;52.304;4.968;2024-02-21T12:19:20;6.68;;;6.10;;
9860;SDS011;4969;52.304;4.968;2024-02-21T12:21:49;6.00;;;5.40;;
9860;SDS011;4969;52.304;4.968;2024-02-21T12:24:17;6.10;;;5.50;;
9860;SDS011;4969;52.304;4.968;2024-02-21T12:26:49;6.05;;;5.55;;
9860;SDS011;4969;52.304;4.968;2024-02-21T12:29:17;6.47;;;5.75;;
9860;SDS011;4969;52.304;4.968;2024-02-21T12:31:43;6.15;;;5.65;;
9860;SDS011;4969;52.304;4.968;2024-02-21T12:34:10;3.70;;;3.40;;
9860;SDS011;4969;52.304;4.968;2024-02-21T12:36:40;6.22;;;5.57;;
9860;SDS011;4969;52.304;4.968;2024-02-21T12:39:09;6.32;;;5.72;;
9860;SDS011;4969;52.304;4.968;2024-02-21T12:41:36;7.45;;;6.22;;
9860;SDS011;4969;52.304;4.968;2024-02-21T12:44:03;5.60;;;5.20;;
9860;SDS011;4969;52.304;4.968;2024-02-21T12:46:32;6.55;;;5.68;;
9860;SDS011;4969;52.304;4.968;2024-02-21T12:48:58;9.60;;;5.85;;
9860;SDS011;4969;52.304;4.968;2024-02-21T12:51:25;8.77;;;5.93;;
9860;SDS011;4969;52.304;4.968;2024-02-21T12:53:51;10.02;;;7.05;;
9860;SDS011;4969;52.304;4.968;2024-02-21T12:56:19;10.50;;;8.20;;
9860;SDS011;4969;52.304;4.968;2024-02-21T12:58:46;8.00;;;5.90;;
9860;SDS011;4969;52.304;4.968;2024-02-21T13:01:13;7.63;;;5.53;;
9860;SDS011;4969;52.304;4.968;2024-02-21T13:03:39;8.63;;;6.05;;
9860;SDS011;4969;52.304;4.968;2024-02-21T13:06:06;11.05;;;6.10;;
9860;SDS011;4969;52.304;4.968;2024-02-21T13:08:35;8.25;;;5.90;;
9860;SDS011;4969;52.304;4.968;2024-02-21T13:11:02;7.55;;;4.78;;
9860;SDS011;4969;52.304;4.968;2024-02-21T13:13:30;9.18;;;5.30;;
9860;SDS011;4969;52.304;4.968;2024-02-21T13:15:57;8.30;;;6.47;;
9860;SDS011;4969;52.304;4.968;2024-02-21T13:18:24;7.35;;;5.78;;
9860;SDS011;4969;52.304;4.968;2024-02-21T13:20:50;7.50;;;5.95;;
9860;SDS011;4969;52.304;4.968;2024-02-21T13:23:17;7.00;;;6.35;;
9860;SDS011;4969;52.304;4.968;2024-02-21T13:25:44;9.80;;;5.97;;
9860;SDS011;4969;52.304;4.968;2024-02-21T13:28:10;8.18;;;5.68;;
9860;SDS011;4969;52.304;4.968;2024-02-21T13:30:39;9.95;;;6.47;;
9860;SDS011;4969;52.304;4.968;2024-02-21T13:33:06;8.40;;;5.47;;
9860;SDS011;4969;52.304;4.968;2024-02-21T13:35:34;5.72;;;4.97;;
9860;SDS011;4969;52.304;4.968;2024-02-21T13:38:01;9.55;;;5.80;;
9860;SDS011;4969;52.304;4.968;2024-02-21T13:40:29;7.43;;;5.32;;
9860;SDS011;4969;52.304;4.968;2024-02-21T13:42:56;8.45;;;5.40;;
9860;SDS011;4969;52.304;4.968;2024-02-21T13:45:23;7.40;;;4.72;;
9860;SDS011;4969;52.304;4.968;2024-02-21T13:47:51;8.23;;;5.35;;
9860;SDS011;4969;52.304;4.968;2024-02-21T13:50:17;7.47;;;4.93;;
9860;SDS011;4969;52.304;4.968;2024-02-21T13:52:44;7.30;;;5.22;;
9860;SDS011;4969;52.304;4.968;2024-02-21T13:55:11;9.43;;;6.13;;
9860;SDS011;4969;52.304;4.968;2024-02-21T13:57:38;8.00;;;4.80;;
9860;SDS011;4969;52.304;4.968;2024-02-21T14:00:05;7.20;;;4.38;;
9860;SDS011;4969;52.304;4.968;2024-02-21T14:02:35;7.82;;;4.43;;
9860;SDS011;4969;52.304;4.968;2024-02-21T14:05:04;5.85;;;3.78;;
9860;SDS011;4969;52.304;4.968;2024-02-21T14:07:31;5.22;;;4.30;;
9860;SDS011;4969;52.304;4.968;2024-02-21T14:09:58;6.20;;;4.40;;
9860;SDS011;4969;52.304;4.968;2024-02-21T14:12:24;6.85;;;4.47;;
9860;SDS011;4969;52.304;4.968;2024-02-21T14:14:51;6.60;;;4.25;;
9860;SDS011;4969;52.304;4.968;2024-02-21T14:17:23;4.20;;;3.78;;
9860;SDS011;4969;52.304;4.968;2024-02-21T14:19:49;7.30;;;4.10;;
9860;SDS011;4969;52.304;4.968;2024-02-21T14:22:18;8.60;;;4.75;;
9860;SDS011;4969;52.304;4.968;2024-02-21T14:24:45;7.43;;;4.50;;
9860;SDS011;4969;52.304;4.968;2024-02-21T14:27:11;4.90;;;4.40;;
9860;SDS011;4969;52.304;4.968;2024-02-21T14:29:38;5.93;;;4.78;;
9860;SDS011;4969;52.304;4.968;2024-02-21T14:32:05;6.78;;;5.05;;
9860;SDS011;4969;52.304;4.968;2024-02-21T14:34:32;5.57;;;4.43;;
9860;SDS011;4969;52.304;4.968;2024-02-21T14:36:58;9.75;;;5.07;;
9860;SDS011;4969;52.304;4.968;2024-02-21T14:39:26;9.23;;;4.93;;
9860;SDS011;4969;52.304;4.968;2024-02-21T14:41:53;8.35;;;5.03;;
9860;SDS011;4969;52.304;4.968;2024-02-21T14:44:20;7.30;;;4.43;;
9860;SDS011;4969;52.304;4.968;2024-02-21T14:46:47;8.13;;;4.80;;
9860;SDS011;4969;52.304;4.968;2024-02-21T14:49:14;9.30;;;5.47;;
9860;SDS011;4969;52.304;4.968;2024-02-21T14:51:40;8.68;;;4.88;;
9860;SDS011;4969;52.304;4.968;2024-02-21T14:54:07;7.40;;;4.43;;
9860;SDS011;4969;52.304;4.968;2024-02-21T14:56:35;7.47;;;4.60;;
9860;SDS011;4969;52.304;4.968;2024-02-21T14:59:01;8.05;;;4.70;;
9860;SDS011;4969;52.304;4.968;2024-02-21T15:01:29;6.82;;;4.40;;
9860;SDS011;4969;52.304;4.968;2024-02-21T15:03:57;8.52;;;4.97;;
9860;SDS011;4969;52.304;4.968;2024-02-21T15:06:23;6.03;;;4.28;;
9860;SDS011;4969;52.304;4.968;2024-02-21T15:08:50;9.65;;;4.95;;